createdAt,value
2019-01-25T00:02:04.326Z,19.37
2019-01-25T00:04:33.558Z,21.67
2019-01-25T00:07:02.799Z,19.67
2019-01-25T00:09:32.318Z,20.27
2019-01-25T00:12:01.651Z,20.57
2019-01-25T00:14:30.880Z,18.83
2019-01-25T00:17:00.083Z,17.80
2019-01-25T00:19:29.331Z,19.60
2019-01-25T00:21:58.574Z,18.43
2019-01-25T00:24:27.795Z,19.53
2019-01-25T00:26:57.059Z,17.93
2019-01-25T00:29:26.322Z,19.20
2019-01-25T00:31:55.524Z,16.50
2019-01-25T00:34:24.770Z,15.93
2019-01-25T00:36:54.008Z,18.00
2019-01-25T00:39:23.564Z,17.07
2019-01-25T00:41:52.918Z,15.67
2019-01-25T00:44:22.131Z,16.00
2019-01-25T00:46:51.422Z,15.90
2019-01-25T00:49:21.299Z,15.83
2019-01-25T00:51:50.519Z,14.83
2019-01-25T00:54:19.779Z,15.70
2019-01-25T00:56:49.106Z,16.70
2019-01-25T00:59:18.798Z,17.23
2019-01-25T01:01:48.054Z,15.73
2019-01-25T01:04:17.323Z,16.97
2019-01-25T01:06:46.535Z,14.00
2019-01-25T01:09:15.759Z,16.93
2019-01-25T01:11:45.066Z,15.30
2019-01-25T01:14:14.272Z,17.17
2019-01-25T01:16:43.534Z,17.57
2019-01-25T01:19:12.778Z,15.87
2019-01-25T01:21:42.064Z,13.93
2019-01-25T01:24:11.292Z,17.17
2019-01-25T01:26:40.487Z,14.73
2019-01-25T01:29:09.799Z,15.33
2019-01-25T01:31:39.087Z,16.90
2019-01-25T01:34:08.270Z,14.13
2019-01-25T01:36:37.519Z,17.17
2019-01-25T01:39:07.763Z,13.93
2019-01-25T01:41:36.995Z,14.10
2019-01-25T01:44:06.239Z,14.00
2019-01-25T01:46:35.411Z,13.03
2019-01-25T01:49:04.625Z,17.47
2019-01-25T01:51:33.853Z,16.43
2019-01-25T01:54:03.058Z,13.63
2019-01-25T01:56:32.350Z,14.33
2019-01-25T01:59:01.575Z,14.40
2019-01-25T02:01:30.887Z,13.37
2019-01-25T02:04:00.417Z,12.77
2019-01-25T02:06:29.631Z,14.00
2019-01-25T02:08:58.819Z,13.47
2019-01-25T02:11:28.038Z,14.13
2019-01-25T02:13:57.263Z,17.60
2019-01-25T02:16:26.513Z,14.37
2019-01-25T02:18:55.724Z,13.60
2019-01-25T02:21:25.252Z,13.37
2019-01-25T02:23:54.919Z,13.57
2019-01-25T02:26:24.098Z,14.70
2019-01-25T02:28:53.340Z,14.63
2019-01-25T02:31:22.594Z,14.90
2019-01-25T02:33:51.807Z,13.63
2019-01-25T02:36:21.051Z,13.83
2019-01-25T02:38:50.274Z,15.03
2019-01-25T02:41:19.456Z,15.23
2019-01-25T02:43:48.707Z,13.57
2019-01-25T02:46:17.913Z,12.50
2019-01-25T02:48:47.177Z,13.70
2019-01-25T02:51:16.374Z,13.17
2019-01-25T02:53:45.566Z,12.97
2019-01-25T02:56:14.823Z,14.07
2019-01-25T02:58:44.075Z,12.73
2019-01-25T03:01:13.264Z,15.07
2019-01-25T03:03:42.631Z,14.13
2019-01-25T03:06:11.819Z,14.33
2019-01-25T03:08:41.052Z,13.20
2019-01-25T03:11:10.307Z,12.40
2019-01-25T03:13:39.495Z,12.70
2019-01-25T03:16:08.753Z,12.63
2019-01-25T03:18:37.949Z,12.07
2019-01-25T03:21:07.131Z,12.37
2019-01-25T03:23:36.388Z,15.93
2019-01-25T03:26:05.870Z,14.00
2019-01-25T03:28:35.123Z,13.57
2019-01-25T03:31:04.344Z,14.13
2019-01-25T03:33:33.552Z,13.33
2019-01-25T03:36:02.803Z,13.77
2019-01-25T03:38:32.011Z,12.73
2019-01-25T03:41:01.202Z,12.43
2019-01-25T03:43:30.453Z,12.30
2019-01-25T03:45:59.636Z,13.53
2019-01-25T03:48:28.872Z,11.70
2019-01-25T03:50:58.100Z,11.10
2019-01-25T03:53:27.311Z,11.97
2019-01-25T03:55:56.838Z,11.70
2019-01-25T03:58:26.107Z,13.63
2019-01-25T04:00:55.323Z,13.27
2019-01-25T04:03:24.541Z,12.37
2019-01-25T04:05:53.727Z,13.90
2019-01-25T04:08:22.934Z,15.63
2019-01-25T04:10:52.159Z,13.67
2019-01-25T04:13:21.377Z,11.80
2019-01-25T04:15:50.595Z,13.00
2019-01-25T04:18:19.838Z,12.50
2019-01-25T04:20:49.035Z,12.80
2019-01-25T04:23:18.258Z,12.67
2019-01-25T04:25:47.481Z,14.57
2019-01-25T04:28:16.666Z,12.57
2019-01-25T04:30:45.926Z,11.93
2019-01-25T04:33:15.103Z,12.57
2019-01-25T04:35:44.315Z,12.17
2019-01-25T04:38:13.543Z,11.43
2019-01-25T04:40:42.719Z,11.60
2019-01-25T04:43:11.988Z,12.00
2019-01-25T04:45:41.208Z,13.17
2019-01-25T04:48:14.326Z,11.33
2019-01-25T04:50:43.608Z,12.33
2019-01-25T04:53:12.804Z,12.13
2019-01-25T04:55:42.105Z,13.07
2019-01-25T04:58:18.840Z,14.90
2019-01-25T05:00:48.139Z,13.90
2019-01-25T05:03:17.841Z,13.53
2019-01-25T05:05:46.998Z,16.70
2019-01-25T05:08:17.898Z,13.03
2019-01-25T05:10:47.090Z,12.27
2019-01-25T05:13:16.301Z,13.77
2019-01-25T05:15:45.520Z,12.83
2019-01-25T05:18:15.024Z,13.17
2019-01-25T05:20:44.256Z,16.60
2019-01-25T05:23:13.528Z,14.37
2019-01-25T05:25:43.039Z,13.33
2019-01-25T05:28:19.515Z,13.60
2019-01-25T05:31:02.111Z,11.63
2019-01-25T05:33:32.823Z,14.30
2019-01-25T05:36:10.910Z,13.60
2019-01-25T05:38:40.118Z,13.17
2019-01-25T05:41:09.537Z,12.37
2019-01-25T05:43:40.907Z,12.63
2019-01-25T05:46:10.142Z,13.67
2019-01-25T05:48:39.316Z,12.50
2019-01-25T05:51:08.546Z,16.70
2019-01-25T05:53:37.726Z,20.00
2019-01-25T05:56:07.276Z,18.50
2019-01-25T05:58:36.544Z,17.73
2019-01-25T06:01:07.654Z,18.27
2019-01-25T06:03:37.028Z,16.67
2019-01-25T06:06:07.101Z,13.97
2019-01-25T06:08:43.604Z,14.03
2019-01-25T06:11:11.922Z,18.47
2019-01-25T06:13:45.197Z,18.17
2019-01-25T06:16:14.556Z,17.03
2019-01-25T06:18:43.678Z,17.47
2019-01-25T06:21:12.890Z,16.00
2019-01-25T06:23:42.094Z,19.47
2019-01-25T06:26:12.504Z,14.20
2019-01-25T06:28:41.697Z,14.87
2019-01-25T06:31:10.929Z,16.17
2019-01-25T06:33:40.101Z,24.13
2019-01-25T06:36:09.301Z,26.80
2019-01-25T06:38:38.506Z,22.97
2019-01-25T06:41:08.429Z,23.63
2019-01-25T06:43:37.650Z,28.17
2019-01-25T06:46:07.045Z,25.30
2019-01-25T06:48:36.242Z,19.80
2019-01-25T06:51:06.231Z,22.73
2019-01-25T06:53:35.446Z,32.53
2019-01-25T06:56:04.670Z,34.57
2019-01-25T06:58:55.824Z,32.43
2019-01-25T07:01:36.369Z,36.67
2019-01-25T07:04:05.577Z,40.50
2019-01-25T07:06:34.722Z,38.77
2019-01-25T07:09:06.401Z,41.10
2019-01-25T07:11:41.900Z,42.63
2019-01-25T07:14:06.486Z,40.40
2019-01-25T07:16:35.661Z,43.47
2019-01-25T07:19:04.801Z,40.83
2019-01-25T07:21:33.940Z,46.57
2019-01-25T07:24:03.120Z,41.17
2019-01-25T07:26:32.416Z,46.47
2019-01-25T07:29:01.726Z,38.90
2019-01-25T07:31:30.920Z,39.73
2019-01-25T07:34:00.152Z,37.30
2019-01-25T07:36:29.303Z,36.93
2019-01-25T07:38:58.502Z,37.97
2019-01-25T07:41:27.745Z,34.87
2019-01-25T07:43:56.942Z,32.83
2019-01-25T07:46:26.121Z,36.83
2019-01-25T07:48:55.309Z,31.10
2019-01-25T07:51:24.610Z,38.37
2019-01-25T07:53:53.856Z,37.57
2019-01-25T07:56:23.096Z,34.03
2019-01-25T07:58:52.332Z,36.67
2019-01-25T08:01:21.664Z,34.73
2019-01-25T08:03:50.830Z,36.13
2019-01-25T08:06:20.065Z,31.93
2019-01-25T08:08:49.290Z,31.37
2019-01-25T08:11:18.467Z,29.03
2019-01-25T08:13:47.705Z,27.37
2019-01-25T08:16:17.023Z,27.13
2019-01-25T08:18:46.498Z,24.73
2019-01-25T08:21:15.706Z,25.90
2019-01-25T08:23:44.944Z,30.67
2019-01-25T08:26:15.586Z,33.53
2019-01-25T08:28:44.961Z,31.10
2019-01-25T08:31:14.192Z,33.60
2019-01-25T08:33:43.402Z,35.63
2019-01-25T08:36:12.555Z,29.83
2019-01-25T08:38:41.750Z,37.00
2019-01-25T08:41:10.966Z,32.57
2019-01-25T08:43:40.146Z,30.93
2019-01-25T08:46:09.390Z,30.20
2019-01-25T08:48:38.628Z,32.60
2019-01-25T08:51:07.842Z,29.53
2019-01-25T08:53:37.063Z,27.10
2019-01-25T08:56:06.950Z,26.43
2019-01-25T08:58:36.502Z,23.70
2019-01-25T09:01:06.094Z,25.60
2019-01-25T09:03:35.295Z,26.23
2019-01-25T09:06:04.533Z,26.00
2019-01-25T09:08:33.716Z,28.33
2019-01-25T09:11:02.871Z,25.53
2019-01-25T09:13:32.128Z,30.03
2019-01-25T09:16:01.315Z,27.90
2019-01-25T09:18:30.486Z,28.50
2019-01-25T09:20:59.750Z,29.53
2019-01-25T09:23:28.914Z,26.10
2019-01-25T09:26:01.005Z,26.80
2019-01-25T09:28:28.987Z,25.60
2019-01-25T09:30:58.167Z,24.53
2019-01-25T09:33:27.286Z,22.73
2019-01-25T09:35:56.467Z,26.47
2019-01-25T09:38:25.673Z,21.80
2019-01-25T09:40:54.881Z,18.13
2019-01-25T09:43:24.414Z,20.30
2019-01-25T09:45:53.658Z,21.37
2019-01-25T09:48:22.882Z,17.30
2019-01-25T09:50:52.817Z,20.00
2019-01-25T09:53:22.442Z,18.13
2019-01-25T09:55:51.635Z,19.90
2019-01-25T09:58:21.181Z,18.83
2019-01-25T10:00:57.250Z,18.93
2019-01-25T10:03:26.494Z,18.03
2019-01-25T10:05:55.750Z,19.77
2019-01-25T10:08:25.025Z,22.87
2019-01-25T10:10:54.200Z,21.43
2019-01-25T10:13:23.417Z,18.80
2019-01-25T10:15:52.599Z,18.47
2019-01-25T10:18:24.877Z,21.20
2019-01-25T10:20:52.924Z,23.47
2019-01-25T10:23:22.136Z,24.30
2019-01-25T10:25:51.326Z,22.70
2019-01-25T10:28:20.513Z,19.97
2019-01-25T10:30:50.818Z,24.17
2019-01-25T10:33:20.030Z,19.97
2019-01-25T10:35:49.294Z,23.07
2019-01-25T10:38:18.503Z,20.93
2019-01-25T10:40:47.707Z,21.03
2019-01-25T10:43:16.895Z,20.50
2019-01-25T10:45:46.059Z,23.17
2019-01-25T10:48:15.257Z,21.00
2019-01-25T10:50:44.462Z,20.73
2019-01-25T10:53:13.655Z,22.50
2019-01-25T10:55:42.859Z,23.10
2019-01-25T10:58:11.992Z,24.20
2019-01-25T11:00:41.245Z,23.63
2019-01-25T11:03:10.455Z,21.57
2019-01-25T11:05:39.722Z,17.93
2019-01-25T11:08:08.896Z,16.17
2019-01-25T11:10:38.062Z,18.77
2019-01-25T11:13:07.284Z,13.93
2019-01-25T11:15:36.457Z,13.87
2019-01-25T11:18:05.878Z,15.57
2019-01-25T11:20:35.126Z,13.23
2019-01-25T11:23:04.316Z,15.27
2019-01-25T11:25:35.912Z,17.97
2019-01-25T11:28:05.288Z,18.30
2019-01-25T11:30:34.494Z,16.67
2019-01-25T11:33:03.666Z,20.20
2019-01-25T11:35:32.853Z,20.57
2019-01-25T11:38:02.057Z,20.83
2019-01-25T11:40:34.027Z,24.00
2019-01-25T11:43:08.404Z,15.27
2019-01-25T11:45:34.114Z,23.47
2019-01-25T11:48:03.291Z,18.70
2019-01-25T11:50:33.930Z,20.70
2019-01-25T11:53:03.126Z,26.00
2019-01-25T11:55:32.342Z,20.37
2019-01-25T11:58:01.795Z,18.23
2019-01-25T12:00:31.410Z,16.23
2019-01-25T12:03:00.605Z,19.67
2019-01-25T12:05:29.759Z,21.97
2019-01-25T12:07:59.015Z,19.03
2019-01-25T12:10:29.558Z,17.30
2019-01-25T12:12:58.745Z,22.13
2019-01-25T12:15:27.875Z,20.70
2019-01-25T12:17:57.441Z,18.23
2019-01-25T12:20:28.557Z,18.57
2019-01-25T12:22:57.680Z,19.23
2019-01-25T12:25:26.889Z,15.93
2019-01-25T12:27:56.072Z,16.77
2019-01-25T12:30:37.625Z,17.20
2019-01-25T12:33:04.919Z,18.90
2019-01-25T12:35:36.596Z,18.17
2019-01-25T12:38:05.876Z,16.47
2019-01-25T12:40:35.440Z,20.53
2019-01-25T12:43:04.697Z,18.57
2019-01-25T12:45:33.924Z,21.03
2019-01-25T12:48:03.082Z,16.07
2019-01-25T12:50:49.149Z,17.10
2019-01-25T12:53:18.766Z,16.60
2019-01-25T12:55:48.346Z,15.83
2019-01-25T12:58:17.537Z,16.87
2019-01-25T13:00:46.730Z,15.43
2019-01-25T13:03:15.986Z,16.03
2019-01-25T13:05:45.126Z,16.97
2019-01-25T13:08:14.338Z,16.60
2019-01-25T13:10:43.599Z,18.90
2019-01-25T13:13:12.746Z,17.37
2019-01-25T13:15:42.001Z,16.77
2019-01-25T13:18:11.187Z,15.90
2019-01-25T13:20:40.354Z,17.83
2019-01-25T13:23:09.693Z,20.93
2019-01-25T13:25:38.865Z,17.07
2019-01-25T13:28:08.073Z,16.60
2019-01-25T13:30:37.306Z,17.40
2019-01-25T13:33:06.488Z,18.60
2019-01-25T13:35:35.753Z,16.77
2019-01-25T13:38:04.981Z,19.90
2019-01-25T13:40:34.164Z,17.10
2019-01-25T13:43:03.408Z,17.77
2019-01-25T13:45:32.577Z,17.80
2019-01-25T13:48:01.736Z,18.10
2019-01-25T13:50:30.985Z,16.30
2019-01-25T13:53:00.191Z,16.43
2019-01-25T13:55:29.391Z,17.93
2019-01-25T13:57:58.674Z,17.47
2019-01-25T14:00:29.946Z,19.43
2019-01-25T14:02:59.172Z,16.73
2019-01-25T14:05:28.366Z,18.17
2019-01-25T14:07:57.587Z,16.10
2019-01-25T14:10:28.784Z,17.20
2019-01-25T14:12:57.954Z,17.73
2019-01-25T14:15:27.581Z,17.83
2019-01-25T14:17:56.794Z,17.70
2019-01-25T14:20:27.735Z,16.87
2019-01-25T14:22:56.965Z,19.10
2019-01-25T14:25:26.133Z,17.57
2019-01-25T14:27:55.325Z,18.20
2019-01-25T14:30:27.173Z,17.43
2019-01-25T14:32:56.371Z,15.87
2019-01-25T14:35:25.886Z,15.53
2019-01-25T14:37:55.125Z,16.17
2019-01-25T14:40:24.364Z,19.83
2019-01-25T14:42:53.924Z,18.77
2019-01-25T14:45:23.150Z,20.87
2019-01-25T14:47:52.399Z,20.27
2019-01-25T14:50:22.658Z,19.13
2019-01-25T14:52:51.842Z,19.17
2019-01-25T14:55:21.005Z,18.30
2019-01-25T14:57:50.224Z,19.57
2019-01-25T15:00:19.355Z,19.63
2019-01-25T15:02:48.618Z,20.17
2019-01-25T15:05:18.674Z,19.57
2019-01-25T15:07:47.850Z,20.73
2019-01-25T15:10:22.212Z,19.43
2019-01-25T15:12:52.024Z,19.83
2019-01-25T15:15:21.236Z,19.47
2019-01-25T15:17:50.530Z,18.13
2019-01-25T15:20:21.554Z,19.07
2019-01-25T15:22:50.845Z,18.13
2019-01-25T15:25:20.050Z,18.00
2019-01-25T15:27:49.282Z,21.30
2019-01-25T15:30:20.642Z,17.77
2019-01-25T15:32:49.816Z,18.03
2019-01-25T15:35:20.169Z,14.23
2019-01-25T15:37:49.394Z,12.83
2019-01-25T15:40:18.947Z,13.90
2019-01-25T15:42:48.148Z,14.07
2019-01-25T15:45:17.726Z,13.47
2019-01-25T15:47:47.025Z,11.57
2019-01-25T15:50:21.124Z,15.67
2019-01-25T15:52:50.291Z,15.30
2019-01-25T15:55:19.804Z,17.03
2019-01-25T15:57:49.026Z,18.33
2019-01-25T16:00:20.211Z,17.07
2019-01-25T16:02:49.435Z,16.60
2019-01-25T16:05:19.858Z,17.97
2019-01-25T16:07:49.910Z,16.20
2019-01-25T16:10:20.507Z,17.13
2019-01-25T16:12:49.753Z,18.93
2019-01-25T16:15:24.224Z,16.30
2019-01-25T16:17:53.497Z,15.13
2019-01-25T16:20:22.649Z,13.97
2019-01-25T16:22:51.919Z,15.77
2019-01-25T16:25:23.962Z,15.17
2019-01-25T16:27:53.153Z,16.17
2019-01-25T16:30:27.409Z,13.90
2019-01-25T16:32:56.601Z,15.00
2019-01-25T16:35:25.869Z,14.30
2019-01-25T16:37:55.128Z,15.23
2019-01-25T16:40:24.978Z,12.33
2019-01-25T16:42:54.579Z,13.90
2019-01-25T16:45:29.199Z,13.10
2019-01-25T16:47:58.442Z,13.80
2019-01-25T16:50:27.625Z,13.40
2019-01-25T16:52:56.773Z,13.53
2019-01-25T16:55:25.942Z,12.57
2019-01-25T16:57:55.137Z,13.23
2019-01-25T17:00:26.953Z,10.00
2019-01-25T17:02:56.201Z,11.33
2019-01-25T17:05:25.433Z,11.77
2019-01-25T17:07:54.650Z,10.87
2019-01-25T17:10:23.905Z,9.87
2019-01-25T17:12:53.118Z,11.83
2019-01-25T17:15:22.268Z,12.00
2019-01-25T17:17:51.486Z,11.03
2019-01-25T17:20:21.653Z,10.00
2019-01-25T17:22:51.090Z,11.87
2019-01-25T17:25:20.575Z,9.63
2019-01-25T17:27:49.742Z,9.93
2019-01-25T17:30:26.784Z,11.20
2019-01-25T17:32:56.871Z,9.27
2019-01-25T17:35:26.163Z,10.37
2019-01-25T17:37:55.365Z,10.83
2019-01-25T17:40:27.283Z,10.37
2019-01-25T17:42:56.857Z,10.50
2019-01-25T17:45:26.082Z,9.97
2019-01-25T17:47:55.322Z,10.33
2019-01-25T17:50:24.640Z,12.07
2019-01-25T17:52:53.890Z,10.97
2019-01-25T17:55:23.025Z,11.40
2019-01-25T17:57:52.245Z,9.77
2019-01-25T18:00:37.086Z,11.00
2019-01-25T18:03:06.304Z,10.50
2019-01-25T18:05:35.540Z,10.23
2019-01-25T18:08:04.816Z,11.13
2019-01-25T18:10:34.034Z,12.87
2019-01-25T18:13:03.298Z,10.93
2019-01-25T18:15:32.570Z,10.80
2019-01-25T18:18:01.773Z,11.10
2019-01-25T18:20:30.946Z,9.30
2019-01-25T18:23:00.190Z,10.67
2019-01-25T18:25:42.073Z,11.17
2019-01-25T18:28:14.089Z,12.03
2019-01-25T18:30:49.629Z,9.80
2019-01-25T18:33:18.817Z,10.77
2019-01-25T18:35:47.976Z,10.17
2019-01-25T18:38:17.456Z,11.57
2019-01-25T18:40:46.646Z,10.67
2019-01-25T18:43:15.831Z,10.50
2019-01-25T18:45:46.054Z,12.27
2019-01-25T18:48:15.249Z,11.90
2019-01-25T18:50:44.440Z,13.23
2019-01-25T18:53:14.067Z,12.47
2019-01-25T18:55:43.289Z,12.03
2019-01-25T18:58:12.505Z,13.70
2019-01-25T19:00:41.685Z,12.23
2019-01-25T19:03:10.849Z,10.47
2019-01-25T19:05:40.078Z,9.77
2019-01-25T19:08:10.868Z,10.47
2019-01-25T19:10:40.910Z,10.90
2019-01-25T19:13:10.074Z,12.50
2019-01-25T19:15:39.438Z,9.33
2019-01-25T19:18:11.120Z,10.33
2019-01-25T19:20:40.463Z,10.93
2019-01-25T19:23:10.050Z,12.13
2019-01-25T19:25:39.282Z,11.37
2019-01-25T19:28:08.382Z,10.50
2019-01-25T19:30:39.650Z,11.10
2019-01-25T19:33:08.873Z,12.87
2019-01-25T19:35:38.165Z,11.67
2019-01-25T19:38:08.550Z,10.90
2019-01-25T19:40:37.764Z,10.80
2019-01-25T19:43:07.014Z,13.97
2019-01-25T19:45:36.365Z,11.47
2019-01-25T19:48:05.657Z,11.97
2019-01-25T19:50:34.889Z,15.40
2019-01-25T19:53:04.067Z,14.00
2019-01-25T19:55:33.328Z,13.17
2019-01-25T19:58:02.847Z,11.87
2019-01-25T20:00:34.895Z,12.97
2019-01-25T20:03:04.357Z,18.67
2019-01-25T20:05:33.573Z,16.50
2019-01-25T20:08:02.732Z,18.57
2019-01-25T20:10:32.830Z,13.73
2019-01-25T20:13:02.093Z,15.77
2019-01-25T20:15:31.655Z,19.63
2019-01-25T20:18:00.862Z,14.07
2019-01-25T20:20:31.855Z,15.90
2019-01-25T20:23:01.537Z,15.40
2019-01-25T20:25:30.768Z,16.83
2019-01-25T20:27:59.990Z,15.07
2019-01-25T20:30:31.450Z,19.20
2019-01-25T20:33:01.861Z,17.87
2019-01-25T20:35:33.206Z,15.40
2019-01-25T20:38:02.464Z,17.63
2019-01-25T20:40:31.679Z,16.57
2019-01-25T20:43:01.052Z,14.50
2019-01-25T20:45:33.815Z,18.67
2019-01-25T20:48:03.054Z,18.63
2019-01-25T20:50:33.265Z,18.97
2019-01-25T20:53:02.506Z,16.40
2019-01-25T20:55:32.141Z,17.40
2019-01-25T20:58:02.471Z,18.20
2019-01-25T21:00:33.669Z,16.60
2019-01-25T21:03:04.207Z,18.03
2019-01-25T21:05:33.425Z,16.50
2019-01-25T21:08:02.629Z,19.17
2019-01-25T21:10:31.849Z,17.47
2019-01-25T21:13:01.086Z,18.80
2019-01-25T21:15:35.105Z,18.93
2019-01-25T21:18:01.146Z,18.87
2019-01-25T21:20:32.829Z,16.93
2019-01-25T21:23:02.153Z,16.93
2019-01-25T21:25:31.382Z,13.40
2019-01-25T21:28:00.528Z,14.47
2019-01-25T21:30:31.225Z,15.47
2019-01-25T21:33:00.855Z,17.67
2019-01-25T21:35:30.073Z,15.10
2019-01-25T21:37:59.329Z,16.30
2019-01-25T21:40:29.964Z,14.10
2019-01-25T21:42:59.496Z,15.03
2019-01-25T21:45:30.490Z,17.27
2019-01-25T21:47:59.819Z,15.00
2019-01-25T21:50:31.621Z,18.23
2019-01-25T21:53:00.812Z,16.20
2019-01-25T21:55:30.045Z,15.40
2019-01-25T21:58:05.496Z,19.93
2019-01-25T22:00:31.419Z,16.07
2019-01-25T22:03:00.650Z,16.27
2019-01-25T22:05:29.857Z,17.03
2019-01-25T22:07:59.087Z,18.53
2019-01-25T22:10:30.898Z,16.37
2019-01-25T22:13:00.092Z,15.97
2019-01-25T22:15:29.366Z,16.87
2019-01-25T22:17:58.603Z,16.20
2019-01-25T22:20:28.827Z,14.57
2019-01-25T22:22:58.451Z,16.87
2019-01-25T22:25:28.095Z,16.40
2019-01-25T22:27:58.580Z,15.37
2019-01-25T22:30:28.369Z,19.80
2019-01-25T22:32:57.614Z,18.53
2019-01-25T22:35:27.370Z,16.40
2019-01-25T22:37:56.618Z,18.03
2019-01-25T22:40:27.829Z,18.70
2019-01-25T22:42:57.153Z,16.70
2019-01-25T22:45:29.730Z,14.93
2019-01-25T22:48:01.323Z,17.37
2019-01-25T22:50:32.688Z,18.27
2019-01-25T22:53:02.165Z,15.97
2019-01-25T22:55:31.354Z,13.10
2019-01-25T22:58:00.546Z,15.50
2019-01-25T23:00:54.850Z,12.43
2019-01-25T23:03:33.702Z,14.40
2019-01-25T23:06:44.641Z,14.27
2019-01-25T23:09:37.554Z,14.20
2019-01-25T23:12:06.753Z,12.47
2019-01-25T23:14:36.394Z,12.17
2019-01-25T23:17:05.557Z,13.43
2019-01-25T23:19:34.697Z,12.27
2019-01-25T23:22:07.171Z,12.30
2019-01-25T23:24:36.617Z,11.43
2019-01-25T23:27:08.032Z,12.97
2019-01-25T23:29:38.878Z,15.67
2019-01-25T23:32:08.783Z,12.13
2019-01-25T23:34:41.385Z,14.30
2019-01-25T23:37:10.906Z,15.93
2019-01-25T23:39:42.337Z,14.43
2019-01-25T23:42:12.527Z,14.70
2019-01-25T23:44:41.746Z,12.03
2019-01-25T23:47:11.413Z,13.77
2019-01-25T23:49:40.656Z,16.43
2019-01-25T23:52:10.219Z,15.57
2019-01-25T23:54:41.541Z,13.23
2019-01-25T23:57:11.398Z,13.97
2019-01-25T23:59:41.069Z,14.60
